createdAt,value
2017-11-03T00:02:13.903Z,97404.38
2017-11-03T00:04:41.465Z,97407.24
2017-11-03T00:07:09.055Z,97407.39
2017-11-03T00:09:36.587Z,97396.63
2017-11-03T00:12:04.139Z,97398.05
2017-11-03T00:14:31.903Z,97393.31
2017-11-03T00:17:00.104Z,97394.03
2017-11-03T00:19:27.643Z,97393.31
2017-11-03T00:21:55.383Z,97400.34
2017-11-03T00:24:22.918Z,97405.97
2017-11-03T00:26:50.460Z,97399.63
2017-11-03T00:29:18.363Z,97406.95
2017-11-03T00:31:45.945Z,97406.67
2017-11-03T00:34:13.504Z,97410.16
2017-11-03T00:36:41.984Z,97417.63
2017-11-03T00:39:09.541Z,97419.02
2017-11-03T00:41:37.119Z,97416.73
2017-11-03T00:44:04.716Z,97412.30
2017-11-03T00:46:32.255Z,97417.33
2017-11-03T00:48:59.796Z,97418.80
2017-11-03T00:51:27.543Z,97421.03
2017-11-03T00:53:55.101Z,97421.70
2017-11-03T00:56:22.660Z,97417.33
2017-11-03T00:58:50.631Z,97422.48
2017-11-03T01:01:18.189Z,97424.20
2017-11-03T01:03:45.752Z,97424.91
2017-11-03T01:06:13.511Z,97427.48
2017-11-03T01:08:41.069Z,97421.15
2017-11-03T01:11:08.629Z,97415.48
2017-11-03T01:13:36.377Z,97414.20
2017-11-03T01:16:03.896Z,97416.05
2017-11-03T01:18:31.437Z,97418.27
2017-11-03T01:20:59.316Z,97423.78
2017-11-03T01:23:26.856Z,97415.98
2017-11-03T01:25:54.429Z,97415.34
2017-11-03T01:28:22.061Z,97416.23
2017-11-03T01:30:49.614Z,97412.14
2017-11-03T01:33:17.173Z,97410.33
2017-11-03T01:35:44.920Z,97409.03
2017-11-03T01:38:12.498Z,97411.29
2017-11-03T01:40:40.056Z,97419.64
2017-11-03T01:43:07.798Z,97419.55
2017-11-03T01:45:35.328Z,97416.41
2017-11-03T01:48:02.871Z,97413.47
2017-11-03T01:50:30.802Z,97409.16
2017-11-03T01:52:58.331Z,97411.34
2017-11-03T01:55:25.872Z,97408.91
2017-11-03T01:57:53.701Z,97409.47
2017-11-03T02:00:21.244Z,97408.05
2017-11-03T02:02:48.847Z,97401.53
2017-11-03T02:05:16.440Z,97397.83
2017-11-03T02:07:43.967Z,97398.84
2017-11-03T02:10:11.494Z,97393.81
2017-11-03T02:12:39.257Z,97402.55
2017-11-03T02:15:07.213Z,97399.12
2017-11-03T02:17:34.738Z,97399.48
2017-11-03T02:20:02.535Z,97403.36
2017-11-03T02:22:30.111Z,97407.39
2017-11-03T02:24:57.746Z,97406.45
2017-11-03T02:27:25.316Z,97409.47
2017-11-03T02:29:52.876Z,97407.39
2017-11-03T02:32:20.429Z,97416.02
2017-11-03T02:34:48.379Z,97415.39
2017-11-03T02:37:15.907Z,97413.92
2017-11-03T02:39:43.446Z,97409.72
2017-11-03T02:42:11.285Z,97415.69
2017-11-03T02:44:38.843Z,97408.14
2017-11-03T02:47:06.415Z,97405.88
2017-11-03T02:49:33.987Z,97412.34
2017-11-03T02:52:01.517Z,97404.09
2017-11-03T02:54:29.048Z,97400.95
2017-11-03T02:56:56.651Z,97401.22
2017-11-03T02:59:24.197Z,97404.69
2017-11-03T03:01:51.745Z,97404.48
2017-11-03T03:04:19.459Z,97406.00
2017-11-03T03:06:46.992Z,97403.45
2017-11-03T03:09:14.528Z,97404.33
2017-11-03T03:11:42.197Z,97405.19
2017-11-03T03:14:09.757Z,97400.91
2017-11-03T03:16:37.317Z,97404.72
2017-11-03T03:19:05.067Z,97406.84
2017-11-03T03:21:32.595Z,97411.84
2017-11-03T03:24:00.127Z,97408.86
2017-11-03T03:26:27.949Z,97403.50
2017-11-03T03:28:55.482Z,97412.12
2017-11-03T03:31:23.041Z,97412.47
2017-11-03T03:33:50.743Z,97404.38
2017-11-03T03:36:18.300Z,97407.66
2017-11-03T03:38:45.859Z,97404.58
2017-11-03T03:41:13.443Z,97411.68
2017-11-03T03:43:40.975Z,97404.08
2017-11-03T03:46:08.537Z,97410.64
2017-11-03T03:48:36.139Z,97420.58
2017-11-03T03:51:03.687Z,97411.63
2017-11-03T03:53:31.220Z,97413.47
2017-11-03T03:55:58.958Z,97406.27
2017-11-03T03:58:26.487Z,97408.84
2017-11-03T04:00:54.011Z,97409.63
2017-11-03T04:03:21.861Z,97404.43
2017-11-03T04:05:49.418Z,97407.08
2017-11-03T04:08:16.977Z,97410.94
2017-11-03T04:10:44.583Z,97409.20
2017-11-03T04:13:12.122Z,97409.63
2017-11-03T04:15:39.655Z,97407.03
2017-11-03T04:18:07.251Z,97411.44
2017-11-03T04:20:34.803Z,97412.81
2017-11-03T04:23:02.334Z,97409.27
2017-11-03T04:25:29.914Z,97408.58
2017-11-03T04:27:57.443Z,97413.17
2017-11-03T04:30:25.011Z,97408.48
2017-11-03T04:32:52.775Z,97411.72
2017-11-03T04:35:20.309Z,97411.17
2017-11-03T04:37:47.834Z,97407.16
2017-11-03T04:40:15.537Z,97416.06
2017-11-03T04:42:43.071Z,97410.30
2017-11-03T04:45:10.599Z,97408.33
2017-11-03T04:47:38.336Z,97405.84
2017-11-03T04:50:05.893Z,97403.33
2017-11-03T04:52:33.451Z,97415.67
2017-11-03T04:55:01.426Z,97414.02
2017-11-03T04:57:28.997Z,97408.50
2017-11-03T04:59:56.526Z,97399.36
2017-11-03T05:02:24.490Z,97404.42
2017-11-03T05:04:52.016Z,97408.78
2017-11-03T05:07:19.544Z,97402.02
2017-11-03T05:09:47.131Z,97404.66
2017-11-03T05:12:15.694Z,97401.98
2017-11-03T05:14:43.220Z,97398.12
2017-11-03T05:17:10.990Z,97398.14
2017-11-03T05:19:38.546Z,97403.69
2017-11-03T05:22:06.076Z,97398.69
2017-11-03T05:24:33.751Z,97401.92
2017-11-03T05:27:01.329Z,97400.09
2017-11-03T05:29:28.859Z,97403.89
2017-11-03T05:31:56.731Z,97403.59
2017-11-03T05:34:24.250Z,97402.28
2017-11-03T05:36:51.781Z,97399.47
2017-11-03T05:39:19.531Z,97404.36
2017-11-03T05:41:47.091Z,97400.89
2017-11-03T05:44:14.614Z,97400.94
2017-11-03T05:46:42.183Z,97408.17
2017-11-03T05:49:09.706Z,97406.20
2017-11-03T05:51:37.231Z,97412.69
2017-11-03T05:54:05.170Z,97414.24
2017-11-03T05:56:32.699Z,97410.84
2017-11-03T05:59:00.229Z,97413.65
2017-11-03T06:01:28.258Z,97411.97
2017-11-03T06:03:55.788Z,97413.99
2017-11-03T06:06:23.328Z,97420.00
2017-11-03T06:08:50.911Z,97420.98
2017-11-03T06:11:18.444Z,97419.43
2017-11-03T06:13:45.971Z,97427.78
2017-11-03T06:16:13.732Z,97430.86
2017-11-03T06:18:41.268Z,97429.08
2017-11-03T06:21:08.807Z,97432.73
2017-11-03T06:23:36.522Z,97426.70
2017-11-03T06:26:04.073Z,97427.34
2017-11-03T06:28:31.603Z,97432.58
2017-11-03T06:30:59.499Z,97429.75
2017-11-03T06:33:27.136Z,97433.56
2017-11-03T06:35:54.671Z,97443.83
2017-11-03T06:38:22.567Z,97444.25
2017-11-03T06:40:50.092Z,97439.37
2017-11-03T06:43:17.615Z,97439.63
2017-11-03T06:45:45.367Z,97443.41
2017-11-03T06:48:12.925Z,97447.85
2017-11-03T06:50:40.460Z,97438.00
2017-11-03T06:53:08.052Z,97444.97
2017-11-03T06:55:35.601Z,97443.52
2017-11-03T06:58:03.163Z,97444.67
2017-11-03T07:00:30.739Z,97448.22
2017-11-03T07:02:58.266Z,97447.59
2017-11-03T07:05:25.800Z,97452.54
2017-11-03T07:07:54.298Z,97451.50
2017-11-03T07:10:21.827Z,97450.00
2017-11-03T07:12:49.354Z,97450.54
2017-11-03T07:15:17.103Z,97455.08
2017-11-03T07:17:44.657Z,97457.64
2017-11-03T07:20:12.199Z,97452.86
2017-11-03T07:22:39.912Z,97453.94
2017-11-03T07:25:07.446Z,97452.36
2017-11-03T07:27:34.995Z,97449.31
2017-11-03T07:30:02.847Z,97448.33
2017-11-03T07:32:30.422Z,97448.76
2017-11-03T07:34:57.981Z,97442.12
2017-11-03T07:37:25.730Z,97444.33
2017-11-03T07:39:53.307Z,97446.41
2017-11-03T07:42:20.863Z,97445.97
2017-11-03T07:44:48.605Z,97445.11
2017-11-03T07:47:16.187Z,97449.09
2017-11-03T07:49:43.722Z,97447.13
2017-11-03T07:52:11.555Z,97448.46
2017-11-03T07:54:39.087Z,97447.83
2017-11-03T07:57:06.633Z,97443.97
2017-11-03T07:59:34.508Z,97453.94
2017-11-03T08:02:02.052Z,97445.30
2017-11-03T08:04:30.544Z,97442.53
2017-11-03T08:06:58.284Z,97438.39
2017-11-03T08:09:25.855Z,97451.09
2017-11-03T08:11:53.395Z,97444.47
2017-11-03T08:14:21.008Z,97451.58
2017-11-03T08:16:48.550Z,97437.82
2017-11-03T08:19:16.093Z,97440.89
2017-11-03T08:21:43.655Z,97437.20
2017-11-03T08:24:11.211Z,97443.71
2017-11-03T08:26:38.772Z,97436.84
2017-11-03T08:29:06.340Z,97438.44
2017-11-03T08:31:33.860Z,97440.68
2017-11-03T08:34:01.384Z,97439.86
2017-11-03T08:36:29.126Z,97440.97
2017-11-03T08:38:56.674Z,97433.34
2017-11-03T08:41:24.637Z,97434.70
2017-11-03T08:43:52.501Z,97432.98
2017-11-03T08:46:20.051Z,97434.27
2017-11-03T08:48:48.759Z,97438.62
2017-11-03T08:51:16.511Z,97438.05
2017-11-03T08:53:44.071Z,97434.09
2017-11-03T08:56:11.634Z,97435.44
2017-11-03T08:58:39.501Z,97431.83
2017-11-03T09:01:07.156Z,97434.83
2017-11-03T09:03:34.675Z,97435.64
2017-11-03T09:06:02.372Z,97436.90
2017-11-03T09:08:29.932Z,97431.98
2017-11-03T09:10:57.467Z,97430.38
2017-11-03T09:13:25.564Z,97431.61
2017-11-03T09:15:53.131Z,97423.08
2017-11-03T09:18:20.685Z,97427.96
2017-11-03T09:20:48.448Z,97429.27
2017-11-03T09:23:16.009Z,97423.14
2017-11-03T09:25:43.574Z,97433.13
2017-11-03T09:28:11.419Z,97432.33
2017-11-03T09:30:38.940Z,97429.78
2017-11-03T09:33:06.468Z,97436.25
2017-11-03T09:35:34.054Z,97426.56
2017-11-03T09:38:01.588Z,97424.45
2017-11-03T09:40:29.138Z,97426.00
2017-11-03T09:42:56.874Z,97421.80
2017-11-03T09:45:24.399Z,97423.73
2017-11-03T09:47:51.928Z,97431.63
2017-11-03T09:50:20.731Z,97424.75
2017-11-03T09:52:48.284Z,97425.83
2017-11-03T09:55:15.958Z,97429.44
2017-11-03T09:57:43.677Z,97426.94
2017-11-03T10:00:11.236Z,97425.23
2017-11-03T10:02:38.795Z,97422.44
2017-11-03T10:05:06.559Z,97422.81
2017-11-03T10:07:34.120Z,97417.44
2017-11-03T10:10:01.679Z,97421.43
2017-11-03T10:12:29.430Z,97419.42
2017-11-03T10:14:56.955Z,97410.52
2017-11-03T10:17:24.479Z,97412.55
2017-11-03T10:19:52.046Z,97411.12
2017-11-03T10:22:20.498Z,97408.84
2017-11-03T10:24:48.056Z,97402.80
2017-11-03T10:27:15.802Z,97400.31
2017-11-03T10:29:43.331Z,97398.47
2017-11-03T10:32:10.939Z,97391.32
2017-11-03T10:34:38.521Z,97395.69
2017-11-03T10:37:06.047Z,97393.05
2017-11-03T10:39:34.536Z,97383.00
2017-11-03T10:42:02.301Z,97379.25
2017-11-03T10:44:30.076Z,97379.37
2017-11-03T10:46:57.766Z,97375.31
2017-11-03T10:49:25.594Z,97376.04
2017-11-03T10:51:53.184Z,97371.31
2017-11-03T10:54:20.723Z,97369.40
2017-11-03T10:56:48.559Z,97362.46
2017-11-03T10:59:16.079Z,97368.02
2017-11-03T11:01:43.615Z,97363.86
2017-11-03T11:04:11.481Z,97367.98
2017-11-03T11:06:39.029Z,97365.89
2017-11-03T11:09:06.564Z,97361.41
2017-11-03T11:11:34.443Z,97352.72
2017-11-03T11:14:02.016Z,97353.95
2017-11-03T11:16:29.547Z,97348.70
2017-11-03T11:18:57.272Z,97347.86
2017-11-03T11:21:24.858Z,97355.84
2017-11-03T11:23:52.378Z,97347.34
2017-11-03T11:26:20.107Z,97348.14
2017-11-03T11:28:47.676Z,97343.64
2017-11-03T11:31:15.225Z,97342.77
2017-11-03T11:33:42.993Z,97338.27
2017-11-03T11:36:10.545Z,97337.44
2017-11-03T11:38:38.094Z,97335.48
2017-11-03T11:41:05.955Z,97331.06
2017-11-03T11:43:33.478Z,97329.89
2017-11-03T11:46:01.008Z,97323.66
2017-11-03T11:48:28.995Z,97325.62
2017-11-03T11:50:56.528Z,97330.98
2017-11-03T11:53:24.996Z,97323.61
2017-11-03T11:55:52.557Z,97328.05
2017-11-03T11:58:20.117Z,97325.55
2017-11-03T12:00:47.672Z,97330.27
2017-11-03T12:03:15.415Z,97323.61
2017-11-03T12:05:42.996Z,97327.22
2017-11-03T12:08:10.546Z,97328.20
2017-11-03T12:10:38.421Z,97321.80
2017-11-03T12:13:05.988Z,97317.52
2017-11-03T12:15:33.539Z,97314.88
2017-11-03T12:18:01.316Z,97317.24
2017-11-03T12:20:28.866Z,97315.47
2017-11-03T12:22:56.718Z,97316.13
2017-11-03T12:25:24.491Z,97317.36
2017-11-03T12:27:52.152Z,97306.88
2017-11-03T12:30:19.712Z,97312.53
2017-11-03T12:32:47.588Z,97311.11
2017-11-03T12:35:15.160Z,97306.03
2017-11-03T12:37:42.711Z,97308.41
2017-11-03T12:40:10.384Z,97300.58
2017-11-03T12:42:37.915Z,97300.91
2017-11-03T12:45:05.785Z,97296.88
2017-11-03T12:47:33.630Z,97294.28
2017-11-03T12:50:01.217Z,97290.41
2017-11-03T12:52:29.812Z,97289.97
2017-11-03T12:54:57.777Z,97286.63
2017-11-03T12:57:25.525Z,97280.87
2017-11-03T12:59:53.300Z,97275.52
2017-11-03T13:02:21.115Z,97270.52
2017-11-03T13:04:48.818Z,97261.91
2017-11-03T13:07:16.514Z,97269.66
2017-11-03T13:09:44.641Z,97260.48
2017-11-03T13:12:12.415Z,97266.59
2017-11-03T13:14:40.342Z,97263.39
2017-11-03T13:17:08.061Z,97264.84
2017-11-03T13:19:35.810Z,97268.80
2017-11-03T13:22:03.622Z,97263.02
2017-11-03T13:24:31.391Z,97262.33
2017-11-03T13:26:59.204Z,97258.81
2017-11-03T13:29:26.866Z,97250.08
2017-11-03T13:31:55.012Z,97243.23
2017-11-03T13:34:22.803Z,97251.56
2017-11-03T13:36:50.336Z,97253.81
2017-11-03T13:39:18.126Z,97247.65
2017-11-03T13:41:45.685Z,97248.73
2017-11-03T13:44:13.347Z,97244.58
2017-11-03T13:46:41.110Z,97242.28
2017-11-03T13:49:08.668Z,97245.38
2017-11-03T13:51:36.535Z,97238.43
2017-11-03T13:54:04.403Z,97234.72
2017-11-03T13:56:32.271Z,97240.80
2017-11-03T13:58:59.841Z,97231.12
2017-11-03T14:01:27.908Z,97236.30
2017-11-03T14:03:55.662Z,97233.33
2017-11-03T14:06:23.528Z,97229.95
2017-11-03T14:08:52.393Z,97235.19
2017-11-03T14:11:20.080Z,97227.45
2017-11-03T14:13:47.642Z,97229.29
2017-11-03T14:16:15.499Z,97222.30
2017-11-03T14:18:43.276Z,97216.14
2017-11-03T14:21:10.829Z,97209.69
2017-11-03T14:23:38.695Z,97213.59
2017-11-03T14:26:06.270Z,97213.05
2017-11-03T14:28:33.819Z,97213.02
2017-11-03T14:31:01.787Z,97209.13
2017-11-03T14:33:29.342Z,97206.91
2017-11-03T14:35:57.104Z,97209.36
2017-11-03T14:38:24.890Z,97204.66
2017-11-03T14:40:52.452Z,97210.27
2017-11-03T14:43:20.210Z,97201.66
2017-11-03T14:45:48.234Z,97201.58
2017-11-03T14:48:16.938Z,97199.84
2017-11-03T14:50:44.610Z,97208.34
2017-11-03T14:53:12.224Z,97200.03
2017-11-03T14:55:39.950Z,97205.29
2017-11-03T14:58:07.800Z,97201.69
2017-11-03T15:00:36.048Z,97193.67
2017-11-03T15:03:03.741Z,97193.23
2017-11-03T15:05:31.297Z,97195.56
2017-11-03T15:07:59.102Z,97191.15
2017-11-03T15:10:26.828Z,97192.88
2017-11-03T15:12:54.486Z,97185.63
2017-11-03T15:15:22.307Z,97193.47
2017-11-03T15:17:49.834Z,97187.09
2017-11-03T15:20:17.374Z,97193.08
2017-11-03T15:22:45.260Z,97189.92
2017-11-03T15:25:12.819Z,97188.72
2017-11-03T15:27:40.453Z,97191.11
2017-11-03T15:30:08.109Z,97185.81
2017-11-03T15:32:35.776Z,97188.88
2017-11-03T15:35:03.335Z,97186.19
2017-11-03T15:37:30.997Z,97188.05
2017-11-03T15:39:58.537Z,97185.31
2017-11-03T15:42:26.082Z,97178.06
2017-11-03T15:44:53.880Z,97177.25
2017-11-03T15:47:21.416Z,97173.61
2017-11-03T15:49:48.940Z,97175.25
2017-11-03T15:52:16.748Z,97175.11
2017-11-03T15:54:44.321Z,97172.98
2017-11-03T15:57:11.880Z,97167.42
2017-11-03T15:59:39.756Z,97162.67
2017-11-03T16:02:07.407Z,97167.78
2017-11-03T16:04:35.250Z,97171.50
2017-11-03T16:07:03.128Z,97170.35
2017-11-03T16:09:30.700Z,97178.02
2017-11-03T16:11:58.257Z,97167.91
2017-11-03T16:14:26.212Z,97169.14
2017-11-03T16:16:53.787Z,97170.41
2017-11-03T16:19:21.345Z,97167.99
2017-11-03T16:21:49.315Z,97172.20
2017-11-03T16:24:16.918Z,97170.17
2017-11-03T16:26:44.475Z,97168.38
2017-11-03T16:29:12.432Z,97162.55
2017-11-03T16:31:44.586Z,97164.20
2017-11-03T16:34:12.476Z,97161.24
2017-11-03T16:36:40.301Z,97165.87
2017-11-03T16:39:07.963Z,97168.66
2017-11-03T16:41:36.122Z,97170.08
2017-11-03T16:44:04.929Z,97170.42
2017-11-03T16:46:33.109Z,97168.91
2017-11-03T16:49:00.917Z,97164.02
2017-11-03T16:51:29.029Z,97167.23
2017-11-03T16:53:57.103Z,97163.78
2017-11-03T16:56:25.870Z,97163.23
2017-11-03T16:58:54.582Z,97159.73
2017-11-03T17:01:22.548Z,97164.25
2017-11-03T17:03:50.158Z,97163.13
2017-11-03T17:06:19.865Z,97168.91
2017-11-03T17:08:48.400Z,97170.69
2017-11-03T17:11:17.511Z,97169.27
2017-11-03T17:13:49.763Z,97170.76
2017-11-03T17:16:18.756Z,97161.80
2017-11-03T17:18:47.135Z,97159.95
2017-11-03T17:21:15.844Z,97162.57
2017-11-03T17:23:43.860Z,97163.58
2017-11-03T17:26:12.479Z,97158.31
2017-11-03T17:28:40.238Z,97153.83
2017-11-03T17:31:08.986Z,97159.52
2017-11-03T17:33:39.354Z,97150.37
2017-11-03T17:36:06.969Z,97156.52
2017-11-03T17:38:35.618Z,97151.59
2017-11-03T17:41:03.988Z,97152.11
2017-11-03T17:43:32.282Z,97149.23
2017-11-03T17:46:00.289Z,97153.88
2017-11-03T17:48:28.905Z,97145.91
2017-11-03T17:50:56.504Z,97150.09
2017-11-03T17:53:24.317Z,97140.88
2017-11-03T17:55:51.945Z,97146.11
2017-11-03T17:58:19.750Z,97142.48
2017-11-03T18:00:47.722Z,97139.66
2017-11-03T18:03:15.500Z,97137.16
2017-11-03T18:05:43.354Z,97138.14
2017-11-03T18:08:11.220Z,97140.83
2017-11-03T18:10:38.982Z,97137.88
2017-11-03T18:13:07.395Z,97137.13
2017-11-03T18:15:35.023Z,97133.34
2017-11-03T18:18:02.834Z,97136.73
2017-11-03T18:20:30.756Z,97127.63
2017-11-03T18:23:00.984Z,97124.81
2017-11-03T18:28:11.052Z,97131.27
2017-11-03T18:30:38.877Z,97136.03
2017-11-03T18:33:07.006Z,97138.19
2017-11-03T18:35:34.952Z,97140.41
2017-11-03T18:38:02.511Z,97137.32
2017-11-03T18:40:30.178Z,97141.63
2017-11-03T18:42:57.940Z,97132.83
2017-11-03T18:45:25.591Z,97136.77
2017-11-03T18:47:53.257Z,97133.98
2017-11-03T18:50:21.148Z,97127.19
2017-11-03T18:52:48.891Z,97125.24
2017-11-03T18:55:16.757Z,97124.16
2017-11-03T18:57:44.833Z,97118.67
2017-11-03T19:00:12.426Z,97118.22
2017-11-03T19:02:40.028Z,97112.31
2017-11-03T19:05:08.091Z,97120.92
2017-11-03T19:07:35.758Z,97122.66
2017-11-03T19:10:05.564Z,97117.00
2017-11-03T19:12:33.456Z,97115.88
2017-11-03T19:15:01.532Z,97109.67
2017-11-03T19:17:29.500Z,97112.84
2017-11-03T19:19:57.754Z,97113.17
2017-11-03T19:22:25.283Z,97113.05
2017-11-03T19:24:53.003Z,97111.49
2017-11-03T19:27:21.273Z,97117.83
2017-11-03T19:29:48.970Z,97115.61
2017-11-03T19:32:16.552Z,97110.34
2017-11-03T19:34:44.426Z,97114.09
2017-11-03T19:37:12.636Z,97112.29
2017-11-03T19:39:40.399Z,97112.92
2017-11-03T19:42:08.267Z,97117.41
2017-11-03T19:44:35.913Z,97114.37
2017-11-03T19:47:03.589Z,97109.48
2017-11-03T19:49:31.452Z,97117.27
2017-11-03T19:51:59.105Z,97112.33
2017-11-03T19:54:26.740Z,97115.64
2017-11-03T19:56:54.644Z,97109.30
2017-11-03T19:59:22.410Z,97103.66
2017-11-03T20:01:50.025Z,97100.50
2017-11-03T20:04:18.051Z,97109.45
2017-11-03T20:06:45.803Z,97107.64
2017-11-03T20:09:13.465Z,97111.20
2017-11-03T20:11:41.638Z,97113.59
2017-11-03T20:14:09.320Z,97111.98
2017-11-03T20:16:37.070Z,97114.63
2017-11-03T20:19:05.303Z,97115.20
2017-11-03T20:21:33.001Z,97113.17
2017-11-03T20:24:01.481Z,97108.38
2017-11-03T20:26:29.190Z,97113.03
2017-11-03T20:28:57.010Z,97111.07
2017-11-03T20:31:24.979Z,97118.56
2017-11-03T20:33:52.723Z,97117.34
2017-11-03T20:36:20.393Z,97115.11
2017-11-03T20:38:48.070Z,97109.50
2017-11-03T20:41:16.016Z,97113.41
2017-11-03T20:43:43.775Z,97109.31
2017-11-03T20:46:11.664Z,97113.30
2017-11-03T20:48:40.594Z,97116.16
2017-11-03T20:51:09.240Z,97112.14
2017-11-03T20:53:36.960Z,97113.71
2017-11-03T20:56:04.971Z,97115.72
2017-11-03T20:58:32.735Z,97116.30
2017-11-03T21:01:00.665Z,97121.52
2017-11-03T21:03:28.780Z,97117.05
2017-11-03T21:05:56.667Z,97112.53
2017-11-03T21:08:24.406Z,97115.59
2017-11-03T21:10:52.796Z,97118.54
2017-11-03T21:13:20.561Z,97113.41
2017-11-03T21:15:48.314Z,97115.30
2017-11-03T21:18:16.487Z,97119.66
2017-11-03T21:20:44.263Z,97115.88
2017-11-03T21:23:12.132Z,97118.74
2017-11-03T21:25:40.494Z,97119.57
2017-11-03T21:28:08.314Z,97113.97
2017-11-03T21:30:36.089Z,97113.75
2017-11-03T21:33:04.253Z,97112.81
2017-11-03T21:35:32.062Z,97101.61
2017-11-03T21:37:59.828Z,97103.72
2017-11-03T21:40:28.410Z,97101.62
2017-11-03T21:42:56.063Z,97098.92
2017-11-03T21:45:23.850Z,97095.50
2017-11-03T21:47:51.701Z,97096.94
2017-11-03T21:50:20.284Z,97100.27
2017-11-03T21:52:48.039Z,97096.48
2017-11-03T21:55:16.053Z,97090.90
2017-11-03T21:57:44.090Z,97087.89
2017-11-03T22:00:11.764Z,97087.89
2017-11-03T22:02:39.829Z,97083.30
2017-11-03T22:05:07.595Z,97081.79
2017-11-03T22:07:35.392Z,97078.50
2017-11-03T22:10:03.218Z,97073.80
2017-11-03T22:12:31.083Z,97077.97
2017-11-03T22:14:59.587Z,97077.25
2017-11-03T22:17:27.633Z,97073.03
2017-11-03T22:19:55.318Z,97069.06
2017-11-03T22:22:24.066Z,97066.66
2017-11-03T22:24:52.255Z,97065.98
2017-11-03T22:27:20.123Z,97062.50
2017-11-03T22:29:48.811Z,97064.63
2017-11-03T22:32:16.880Z,97065.44
2017-11-03T22:34:44.759Z,97062.39
2017-11-03T22:37:12.569Z,97061.83
2017-11-03T22:39:41.059Z,97061.16
2017-11-03T22:42:08.789Z,97061.02
2017-11-03T22:44:36.517Z,97058.84
2017-11-03T22:47:04.896Z,97058.95
2017-11-03T22:49:32.658Z,97058.87
2017-11-03T22:52:01.248Z,97058.00
2017-11-03T22:54:29.100Z,97059.64
2017-11-03T22:56:56.874Z,97066.63
2017-11-03T22:59:24.712Z,97065.83
2017-11-03T23:01:52.707Z,97062.47
2017-11-03T23:04:20.489Z,97065.95
2017-11-03T23:06:48.546Z,97065.33
2017-11-03T23:09:16.259Z,97063.08
2017-11-03T23:11:44.379Z,97059.20
2017-11-03T23:14:11.940Z,97065.69
2017-11-03T23:16:39.529Z,97069.08
2017-11-03T23:19:07.160Z,97061.83
2017-11-03T23:21:34.718Z,97058.22
2017-11-03T23:24:02.595Z,97061.80
2017-11-03T23:26:30.144Z,97051.70
2017-11-03T23:28:57.702Z,97052.56
2017-11-03T23:31:25.470Z,97055.47
2017-11-03T23:33:53.007Z,97048.83
2017-11-03T23:36:20.533Z,97042.75
2017-11-03T23:38:48.348Z,97049.77
2017-11-03T23:41:15.907Z,97044.77
2017-11-03T23:43:43.466Z,97047.20
2017-11-03T23:46:11.230Z,97043.23
2017-11-03T23:48:38.790Z,97045.06
2017-11-03T23:51:06.350Z,97048.07
2017-11-03T23:53:34.215Z,97052.39
2017-11-03T23:56:01.774Z,97045.30
2017-11-03T23:58:29.333Z,97048.89
